sensor_id;sensor_type;location;lat;lon;timestamp;temperature;humidity
26583;DHT22;14230;45.382;10.998;2022-10-17T00:01:02;15.60;99.90
26583;DHT22;14230;45.382;10.998;2022-10-17T00:03:30;15.60;99.90
26583;DHT22;14230;45.382;10.998;2022-10-17T00:05:57;15.70;99.90
26583;DHT22;14230;45.382;10.998;2022-10-17T00:08:25;15.70;99.90
26583;DHT22;14230;45.382;10.998;2022-10-17T00:10:57;15.70;99.90
26583;DHT22;14230;45.382;10.998;2022-10-17T00:13:25;15.70;99.90
26583;DHT22;14230;45.382;10.998;2022-10-17T00:15:53;15.70;99.90
26583;DHT22;14230;45.382;10.998;2022-10-17T00:18:21;15.70;99.90
26583;DHT22;14230;45.382;10.998;2022-10-17T00:20:49;15.70;99.90
26583;DHT22;14230;45.382;10.998;2022-10-17T00:23:17;15.60;99.90
26583;DHT22;14230;45.382;10.998;2022-10-17T00:25:45;15.60;99.90
26583;DHT22;14230;45.382;10.998;2022-10-17T00:28:13;15.60;99.90
26583;DHT22;14230;45.382;10.998;2022-10-17T00:30:41;15.60;99.90
26583;DHT22;14230;45.382;10.998;2022-10-17T00:33:08;15.60;99.90
26583;DHT22;14230;45.382;10.998;2022-10-17T00:35:36;15.60;99.90
26583;DHT22;14230;45.382;10.998;2022-10-17T00:38:03;15.60;99.90
26583;DHT22;14230;45.382;10.998;2022-10-17T00:40:30;15.70;99.90
26583;DHT22;14230;45.382;10.998;2022-10-17T00:42:58;15.60;99.90
26583;DHT22;14230;45.382;10.998;2022-10-17T00:45:29;15.60;99.90
26583;DHT22;14230;45.382;10.998;2022-10-17T00:48:04;15.60;99.90
26583;DHT22;14230;45.382;10.998;2022-10-17T00:50:35;15.70;99.90
26583;DHT22;14230;45.382;10.998;2022-10-17T00:53:05;15.70;99.90
26583;DHT22;14230;45.382;10.998;2022-10-17T00:55:38;15.60;99.90
26583;DHT22;14230;45.382;10.998;2022-10-17T00:58:08;15.60;99.90
26583;DHT22;14230;45.382;10.998;2022-10-17T01:00:36;15.60;99.90
26583;DHT22;14230;45.382;10.998;2022-10-17T01:03:04;15.60;99.90
26583;DHT22;14230;45.382;10.998;2022-10-17T01:05:32;15.50;99.90
26583;DHT22;14230;45.382;10.998;2022-10-17T01:08:00;15.60;99.90
26583;DHT22;14230;45.382;10.998;2022-10-17T01:13:14;15.50;99.90
26583;DHT22;14230;45.382;10.998;2022-10-17T01:18:50;15.50;99.90
26583;DHT22;14230;45.382;10.998;2022-10-17T01:32:36;15.40;99.90
26583;DHT22;14230;45.382;10.998;2022-10-17T01:36:09;15.40;99.90
26583;DHT22;14230;45.382;10.998;2022-10-17T01:38:25;15.40;99.90
26583;DHT22;14230;45.382;10.998;2022-10-17T01:41:06;15.50;99.90
26583;DHT22;14230;45.382;10.998;2022-10-17T01:43:43;15.50;99.90
26583;DHT22;14230;45.382;10.998;2022-10-17T01:46:26;15.50;99.90
26583;DHT22;14230;45.382;10.998;2022-10-17T01:48:59;15.40;99.90
26583;DHT22;14230;45.382;10.998;2022-10-17T01:51:41;15.50;99.90
26583;DHT22;14230;45.382;10.998;2022-10-17T01:54:17;15.50;99.90
26583;DHT22;14230;45.382;10.998;2022-10-17T01:56:50;15.50;99.90
26583;DHT22;14230;45.382;10.998;2022-10-17T01:59:22;15.50;99.90
26583;DHT22;14230;45.382;10.998;2022-10-17T02:01:52;15.40;99.90
26583;DHT22;14230;45.382;10.998;2022-10-17T02:04:22;15.40;99.90
26583;DHT22;14230;45.382;10.998;2022-10-17T02:06:49;15.40;99.90
26583;DHT22;14230;45.382;10.998;2022-10-17T02:09:23;15.40;99.90
26583;DHT22;14230;45.382;10.998;2022-10-17T02:21:02;15.20;99.90
26583;DHT22;14230;45.382;10.998;2022-10-17T02:23:38;15.10;99.90
26583;DHT22;14230;45.382;10.998;2022-10-17T02:26:16;15.20;99.90
26583;DHT22;14230;45.382;10.998;2022-10-17T02:31:26;15.10;99.90
26583;DHT22;14230;45.382;10.998;2022-10-17T02:33:58;15.10;99.90
26583;DHT22;14230;45.382;10.998;2022-10-17T02:36:33;15.10;99.90
26583;DHT22;14230;45.382;10.998;2022-10-17T02:39:03;15.20;99.90
26583;DHT22;14230;45.382;10.998;2022-10-17T02:41:32;15.20;99.90
26583;DHT22;14230;45.382;10.998;2022-10-17T02:44:01;15.10;99.90
26583;DHT22;14230;45.382;10.998;2022-10-17T02:46:30;15.10;99.90
26583;DHT22;14230;45.382;10.998;2022-10-17T02:49:13;15.10;99.90
26583;DHT22;14230;45.382;10.998;2022-10-17T02:51:46;15.10;99.90
26583;DHT22;14230;45.382;10.998;2022-10-17T03:00:09;15.20;99.90
26583;DHT22;14230;45.382;10.998;2022-10-17T03:02:49;15.20;99.90
26583;DHT22;14230;45.382;10.998;2022-10-17T03:05:27;15.20;99.90
26583;DHT22;14230;45.382;10.998;2022-10-17T03:07:55;15.20;99.90
26583;DHT22;14230;45.382;10.998;2022-10-17T03:10:23;15.30;99.90
26583;DHT22;14230;45.382;10.998;2022-10-17T03:12:51;15.30;99.90
26583;DHT22;14230;45.382;10.998;2022-10-17T03:15:19;15.30;99.90
26583;DHT22;14230;45.382;10.998;2022-10-17T03:17:46;15.20;99.90
26583;DHT22;14230;45.382;10.998;2022-10-17T03:20:14;15.30;99.90
26583;DHT22;14230;45.382;10.998;2022-10-17T03:22:41;15.30;99.90
26583;DHT22;14230;45.382;10.998;2022-10-17T03:25:09;15.20;99.90
26583;DHT22;14230;45.382;10.998;2022-10-17T03:27:37;15.10;99.90
26583;DHT22;14230;45.382;10.998;2022-10-17T03:30:04;15.10;99.90
26583;DHT22;14230;45.382;10.998;2022-10-17T03:32:34;15.10;99.90
26583;DHT22;14230;45.382;10.998;2022-10-17T03:35:02;15.00;99.90
26583;DHT22;14230;45.382;10.998;2022-10-17T03:37:29;15.00;99.90
26583;DHT22;14230;45.382;10.998;2022-10-17T03:39:58;15.00;99.90
26583;DHT22;14230;45.382;10.998;2022-10-17T03:42:30;14.90;99.90
26583;DHT22;14230;45.382;10.998;2022-10-17T03:44:57;14.90;99.90
26583;DHT22;14230;45.382;10.998;2022-10-17T03:47:25;14.90;99.90
26583;DHT22;14230;45.382;10.998;2022-10-17T03:49:55;14.90;99.90
26583;DHT22;14230;45.382;10.998;2022-10-17T03:52:23;15.00;99.90
26583;DHT22;14230;45.382;10.998;2022-10-17T03:54:50;15.00;99.90
26583;DHT22;14230;45.382;10.998;2022-10-17T03:57:18;15.00;99.90
26583;DHT22;14230;45.382;10.998;2022-10-17T03:59:46;15.00;99.90
26583;DHT22;14230;45.382;10.998;2022-10-17T04:02:17;14.90;99.90
26583;DHT22;14230;45.382;10.998;2022-10-17T04:04:44;14.90;99.90
26583;DHT22;14230;45.382;10.998;2022-10-17T04:07:12;14.90;99.90
26583;DHT22;14230;45.382;10.998;2022-10-17T04:09:43;14.90;99.90
26583;DHT22;14230;45.382;10.998;2022-10-17T04:12:14;14.90;99.90
26583;DHT22;14230;45.382;10.998;2022-10-17T04:14:42;14.80;99.90
26583;DHT22;14230;45.382;10.998;2022-10-17T04:17:10;14.80;99.90
26583;DHT22;14230;45.382;10.998;2022-10-17T04:19:38;14.90;99.90
26583;DHT22;14230;45.382;10.998;2022-10-17T04:22:06;14.90;99.90
26583;DHT22;14230;45.382;10.998;2022-10-17T04:24:36;14.90;99.90
26583;DHT22;14230;45.382;10.998;2022-10-17T04:27:07;14.90;99.90
26583;DHT22;14230;45.382;10.998;2022-10-17T04:29:39;14.90;99.90
26583;DHT22;14230;45.382;10.998;2022-10-17T04:32:24;14.80;99.90
26583;DHT22;14230;45.382;10.998;2022-10-17T04:35:15;14.80;99.90
26583;DHT22;14230;45.382;10.998;2022-10-17T04:37:47;14.80;99.90
26583;DHT22;14230;45.382;10.998;2022-10-17T04:40:17;14.80;99.90
26583;DHT22;14230;45.382;10.998;2022-10-17T04:42:45;14.80;99.90
26583;DHT22;14230;45.382;10.998;2022-10-17T04:45:17;14.80;99.90
26583;DHT22;14230;45.382;10.998;2022-10-17T04:47:50;14.70;99.90
26583;DHT22;14230;45.382;10.998;2022-10-17T04:50:18;14.80;99.90
26583;DHT22;14230;45.382;10.998;2022-10-17T04:53:03;14.70;99.90
26583;DHT22;14230;45.382;10.998;2022-10-17T04:55:31;14.70;99.90
26583;DHT22;14230;45.382;10.998;2022-10-17T04:58:02;14.80;99.90
26583;DHT22;14230;45.382;10.998;2022-10-17T05:00:31;14.70;99.90
26583;DHT22;14230;45.382;10.998;2022-10-17T05:03:03;14.70;99.90
26583;DHT22;14230;45.382;10.998;2022-10-17T05:05:30;14.70;99.90
26583;DHT22;14230;45.382;10.998;2022-10-17T05:07:59;14.70;99.90
26583;DHT22;14230;45.382;10.998;2022-10-17T05:10:34;14.70;99.90
26583;DHT22;14230;45.382;10.998;2022-10-17T05:13:03;14.70;99.90
26583;DHT22;14230;45.382;10.998;2022-10-17T05:15:32;14.60;99.90
26583;DHT22;14230;45.382;10.998;2022-10-17T05:18:00;14.60;99.90
26583;DHT22;14230;45.382;10.998;2022-10-17T05:20:29;14.60;99.90
26583;DHT22;14230;45.382;10.998;2022-10-17T05:23:00;14.50;99.90
26583;DHT22;14230;45.382;10.998;2022-10-17T05:25:32;14.50;99.90
26583;DHT22;14230;45.382;10.998;2022-10-17T05:28:00;14.50;99.90
26583;DHT22;14230;45.382;10.998;2022-10-17T05:30:27;14.40;99.90
26583;DHT22;14230;45.382;10.998;2022-10-17T05:33:00;14.40;99.90
26583;DHT22;14230;45.382;10.998;2022-10-17T05:35:28;14.40;99.90
26583;DHT22;14230;45.382;10.998;2022-10-17T05:37:57;14.30;99.90
26583;DHT22;14230;45.382;10.998;2022-10-17T05:40:25;14.30;99.90
26583;DHT22;14230;45.382;10.998;2022-10-17T05:42:53;14.20;99.90
26583;DHT22;14230;45.382;10.998;2022-10-17T05:45:22;14.20;99.90
26583;DHT22;14230;45.382;10.998;2022-10-17T05:47:49;14.20;99.90
26583;DHT22;14230;45.382;10.998;2022-10-17T05:50:18;14.10;99.90
26583;DHT22;14230;45.382;10.998;2022-10-17T05:53:23;14.10;99.90
26583;DHT22;14230;45.382;10.998;2022-10-17T05:55:57;14.20;99.90
26583;DHT22;14230;45.382;10.998;2022-10-17T05:58:25;14.20;99.90
26583;DHT22;14230;45.382;10.998;2022-10-17T06:01:24;14.20;99.90
26583;DHT22;14230;45.382;10.998;2022-10-17T06:03:53;14.30;99.90
26583;DHT22;14230;45.382;10.998;2022-10-17T06:06:20;14.40;99.90
26583;DHT22;14230;45.382;10.998;2022-10-17T06:08:48;14.40;99.90
26583;DHT22;14230;45.382;10.998;2022-10-17T06:11:21;14.40;99.90
26583;DHT22;14230;45.382;10.998;2022-10-17T06:13:50;14.50;99.90
26583;DHT22;14230;45.382;10.998;2022-10-17T06:16:23;14.50;99.90
26583;DHT22;14230;45.382;10.998;2022-10-17T06:18:50;14.60;99.90
26583;DHT22;14230;45.382;10.998;2022-10-17T06:21:23;14.70;99.90
26583;DHT22;14230;45.382;10.998;2022-10-17T06:23:53;14.90;99.90
26583;DHT22;14230;45.382;10.998;2022-10-17T06:26:26;15.10;99.90
26583;DHT22;14230;45.382;10.998;2022-10-17T06:28:56;15.30;99.90
26583;DHT22;14230;45.382;10.998;2022-10-17T06:31:25;15.50;99.90
26583;DHT22;14230;45.382;10.998;2022-10-17T06:33:52;15.80;99.90
26583;DHT22;14230;45.382;10.998;2022-10-17T06:36:20;16.00;99.90
26583;DHT22;14230;45.382;10.998;2022-10-17T06:38:49;16.20;99.90
26583;DHT22;14230;45.382;10.998;2022-10-17T06:41:26;16.50;99.90
26583;DHT22;14230;45.382;10.998;2022-10-17T06:43:54;16.80;99.90
26583;DHT22;14230;45.382;10.998;2022-10-17T06:46:57;17.10;99.90
26583;DHT22;14230;45.382;10.998;2022-10-17T06:49:26;17.50;99.90
26583;DHT22;14230;45.382;10.998;2022-10-17T06:52:03;17.70;99.90
26583;DHT22;14230;45.382;10.998;2022-10-17T06:54:43;18.00;99.90
26583;DHT22;14230;45.382;10.998;2022-10-17T06:57:36;18.30;99.90
26583;DHT22;14230;45.382;10.998;2022-10-17T07:00:41;18.60;99.90
26583;DHT22;14230;45.382;10.998;2022-10-17T07:03:11;19.00;99.90
26583;DHT22;14230;45.382;10.998;2022-10-17T07:05:39;19.30;99.90
26583;DHT22;14230;45.382;10.998;2022-10-17T07:08:07;19.60;99.90
26583;DHT22;14230;45.382;10.998;2022-10-17T07:10:37;19.90;99.90
26583;DHT22;14230;45.382;10.998;2022-10-17T07:13:06;20.20;99.90
26583;DHT22;14230;45.382;10.998;2022-10-17T07:15:36;20.20;99.90
26583;DHT22;14230;45.382;10.998;2022-10-17T07:18:05;20.30;99.90
26583;DHT22;14230;45.382;10.998;2022-10-17T07:20:33;20.20;99.90
26583;DHT22;14230;45.382;10.998;2022-10-17T07:23:00;20.40;99.90
26583;DHT22;14230;45.382;10.998;2022-10-17T07:25:28;20.90;99.90
26583;DHT22;14230;45.382;10.998;2022-10-17T07:27:59;21.10;99.90
26583;DHT22;14230;45.382;10.998;2022-10-17T07:30:29;21.30;99.90
26583;DHT22;14230;45.382;10.998;2022-10-17T07:33:02;21.40;99.90
26583;DHT22;14230;45.382;10.998;2022-10-17T07:35:30;21.60;99.90
26583;DHT22;14230;45.382;10.998;2022-10-17T07:37:58;21.90;99.90
26583;DHT22;14230;45.382;10.998;2022-10-17T07:40:26;22.40;99.90
26583;DHT22;14230;45.382;10.998;2022-10-17T07:42:53;23.10;99.90
26583;DHT22;14230;45.382;10.998;2022-10-17T07:45:24;23.50;99.90
26583;DHT22;14230;45.382;10.998;2022-10-17T07:47:57;23.90;99.90
26583;DHT22;14230;45.382;10.998;2022-10-17T07:50:25;24.30;99.90
26583;DHT22;14230;45.382;10.998;2022-10-17T07:52:52;24.50;99.90
26583;DHT22;14230;45.382;10.998;2022-10-17T07:55:20;24.70;99.90
26583;DHT22;14230;45.382;10.998;2022-10-17T07:57:47;24.80;99.90
26583;DHT22;14230;45.382;10.998;2022-10-17T08:00:14;25.00;99.90
26583;DHT22;14230;45.382;10.998;2022-10-17T08:02:42;25.30;99.90
26583;DHT22;14230;45.382;10.998;2022-10-17T08:05:09;25.80;99.90
26583;DHT22;14230;45.382;10.998;2022-10-17T08:07:37;26.10;99.90
26583;DHT22;14230;45.382;10.998;2022-10-17T08:10:05;26.20;99.90
26583;DHT22;14230;45.382;10.998;2022-10-17T08:12:32;26.60;99.90
26583;DHT22;14230;45.382;10.998;2022-10-17T08:15:01;26.90;99.90
26583;DHT22;14230;45.382;10.998;2022-10-17T08:17:28;26.70;99.90
26583;DHT22;14230;45.382;10.998;2022-10-17T08:19:56;26.70;99.90
26583;DHT22;14230;45.382;10.998;2022-10-17T08:22:23;26.90;99.90
26583;DHT22;14230;45.382;10.998;2022-10-17T08:24:51;27.30;99.90
26583;DHT22;14230;45.382;10.998;2022-10-17T08:27:18;27.50;99.90
26583;DHT22;14230;45.382;10.998;2022-10-17T08:29:50;27.30;99.90
26583;DHT22;14230;45.382;10.998;2022-10-17T08:32:23;26.40;99.90
26583;DHT22;14230;45.382;10.998;2022-10-17T08:34:52;26.30;99.90
26583;DHT22;14230;45.382;10.998;2022-10-17T08:37:21;26.40;99.90
26583;DHT22;14230;45.382;10.998;2022-10-17T08:39:49;26.80;99.90
26583;DHT22;14230;45.382;10.998;2022-10-17T08:45:59;26.80;99.90
26583;DHT22;14230;45.382;10.998;2022-10-17T08:48:03;26.50;99.90
26583;DHT22;14230;45.382;10.998;2022-10-17T08:50:36;27.00;99.90
26583;DHT22;14230;45.382;10.998;2022-10-17T08:55:44;27.30;99.90
26583;DHT22;14230;45.382;10.998;2022-10-17T08:58:15;27.10;99.90
26583;DHT22;14230;45.382;10.998;2022-10-17T09:00:49;27.30;99.90
26583;DHT22;14230;45.382;10.998;2022-10-17T09:06:34;27.80;99.90
26583;DHT22;14230;45.382;10.998;2022-10-17T09:20:14;28.80;99.90
26583;DHT22;14230;45.382;10.998;2022-10-17T09:22:55;28.70;99.90
26583;DHT22;14230;45.382;10.998;2022-10-17T09:25:25;28.90;99.90
26583;DHT22;14230;45.382;10.998;2022-10-17T09:28:03;29.20;99.90
26583;DHT22;14230;45.382;10.998;2022-10-17T09:30:43;29.20;99.90
26583;DHT22;14230;45.382;10.998;2022-10-17T09:33:18;28.90;99.90
26583;DHT22;14230;45.382;10.998;2022-10-17T09:36:19;29.20;99.90
26583;DHT22;14230;45.382;10.998;2022-10-17T09:39:17;29.20;99.90
26583;DHT22;14230;45.382;10.998;2022-10-17T09:41:53;29.00;99.90
26583;DHT22;14230;45.382;10.998;2022-10-17T09:44:34;29.30;99.90
26583;DHT22;14230;45.382;10.998;2022-10-17T09:49:50;29.40;99.90
26583;DHT22;14230;45.382;10.998;2022-10-17T09:52:25;29.40;99.90
26583;DHT22;14230;45.382;10.998;2022-10-17T09:55:02;29.40;99.90
26583;DHT22;14230;45.382;10.998;2022-10-17T09:57:57;28.90;99.90
26583;DHT22;14230;45.382;10.998;2022-10-17T10:00:30;28.20;99.90
26583;DHT22;14230;45.382;10.998;2022-10-17T10:03:21;27.80;99.90
26583;DHT22;14230;45.382;10.998;2022-10-17T10:06:15;27.70;99.90
26583;DHT22;14230;45.382;10.998;2022-10-17T10:08:50;27.80;99.90
26583;DHT22;14230;45.382;10.998;2022-10-17T10:11:22;27.50;99.90
26583;DHT22;14230;45.382;10.998;2022-10-17T10:13:51;27.20;99.90
26583;DHT22;14230;45.382;10.998;2022-10-17T10:16:30;27.30;99.90
26583;DHT22;14230;45.382;10.998;2022-10-17T10:18:58;27.60;99.90
26583;DHT22;14230;45.382;10.998;2022-10-17T10:21:29;27.60;99.90
26583;DHT22;14230;45.382;10.998;2022-10-17T10:26:46;27.50;99.90
26583;DHT22;14230;45.382;10.998;2022-10-17T10:29:36;27.50;99.90
26583;DHT22;14230;45.382;10.998;2022-10-17T10:32:24;27.20;99.90
26583;DHT22;14230;45.382;10.998;2022-10-17T10:37:42;27.00;99.90
26583;DHT22;14230;45.382;10.998;2022-10-17T10:40:20;27.00;99.90
26583;DHT22;14230;45.382;10.998;2022-10-17T10:42:51;27.20;99.90
26583;DHT22;14230;45.382;10.998;2022-10-17T10:45:28;27.30;99.90
26583;DHT22;14230;45.382;10.998;2022-10-17T10:48:29;27.40;99.90
26583;DHT22;14230;45.382;10.998;2022-10-17T10:51:09;27.10;99.90
26583;DHT22;14230;45.382;10.998;2022-10-17T10:54:12;27.00;99.90
26583;DHT22;14230;45.382;10.998;2022-10-17T10:57:09;26.60;99.90
26583;DHT22;14230;45.382;10.998;2022-10-17T10:59:53;26.20;99.90
26583;DHT22;14230;45.382;10.998;2022-10-17T11:02:32;25.20;99.90
26583;DHT22;14230;45.382;10.998;2022-10-17T11:05:17;25.00;99.90
26583;DHT22;14230;45.382;10.998;2022-10-17T11:07:59;24.90;99.90
26583;DHT22;14230;45.382;10.998;2022-10-17T11:13:43;24.50;99.90
26583;DHT22;14230;45.382;10.998;2022-10-17T11:16:22;24.40;99.90
26583;DHT22;14230;45.382;10.998;2022-10-17T11:21:35;24.50;99.90
26583;DHT22;14230;45.382;10.998;2022-10-17T11:24:21;24.40;99.90
26583;DHT22;14230;45.382;10.998;2022-10-17T11:26:59;24.30;99.90
26583;DHT22;14230;45.382;10.998;2022-10-17T11:29:32;24.20;99.90
26583;DHT22;14230;45.382;10.998;2022-10-17T11:34:39;24.20;99.90
26583;DHT22;14230;45.382;10.998;2022-10-17T11:37:17;24.30;99.90
26583;DHT22;14230;45.382;10.998;2022-10-17T11:42:58;24.50;99.90
26583;DHT22;14230;45.382;10.998;2022-10-17T11:45:29;24.60;99.90
26583;DHT22;14230;45.382;10.998;2022-10-17T11:48:11;24.60;99.90
26583;DHT22;14230;45.382;10.998;2022-10-17T11:50:44;24.60;99.90
26583;DHT22;14230;45.382;10.998;2022-10-17T11:56:11;24.20;99.90
26583;DHT22;14230;45.382;10.998;2022-10-17T12:01:23;24.30;99.90
26583;DHT22;14230;45.382;10.998;2022-10-17T12:04:14;24.30;99.90
26583;DHT22;14230;45.382;10.998;2022-10-17T12:09:59;24.30;99.90
26583;DHT22;14230;45.382;10.998;2022-10-17T12:12:34;24.30;99.90
26583;DHT22;14230;45.382;10.998;2022-10-17T12:18:01;24.30;99.90
26583;DHT22;14230;45.382;10.998;2022-10-17T12:20:33;24.30;99.90
26583;DHT22;14230;45.382;10.998;2022-10-17T12:28:28;24.40;99.90
26583;DHT22;14230;45.382;10.998;2022-10-17T12:33:37;24.50;99.90
26583;DHT22;14230;45.382;10.998;2022-10-17T12:47:25;24.40;99.90
26583;DHT22;14230;45.382;10.998;2022-10-17T12:49:47;24.40;99.90
26583;DHT22;14230;45.382;10.998;2022-10-17T12:55:06;24.50;99.90
26583;DHT22;14230;45.382;10.998;2022-10-17T13:00:34;24.20;99.90
26583;DHT22;14230;45.382;10.998;2022-10-17T13:03:08;24.30;99.90
26583;DHT22;14230;45.382;10.998;2022-10-17T13:05:41;24.20;99.90
26583;DHT22;14230;45.382;10.998;2022-10-17T13:11:23;24.30;99.90
26583;DHT22;14230;45.382;10.998;2022-10-17T13:13:53;24.30;99.90
26583;DHT22;14230;45.382;10.998;2022-10-17T13:16:38;24.30;99.90
26583;DHT22;14230;45.382;10.998;2022-10-17T13:19:14;24.40;99.90
26583;DHT22;14230;45.382;10.998;2022-10-17T13:21:52;24.40;99.90
26583;DHT22;14230;45.382;10.998;2022-10-17T13:27:02;24.30;99.90
26583;DHT22;14230;45.382;10.998;2022-10-17T13:29:30;24.20;99.90
26583;DHT22;14230;45.382;10.998;2022-10-17T13:32:02;24.30;99.90
26583;DHT22;14230;45.382;10.998;2022-10-17T13:34:32;24.20;99.90
26583;DHT22;14230;45.382;10.998;2022-10-17T13:37:13;24.30;99.90
26583;DHT22;14230;45.382;10.998;2022-10-17T13:39:43;24.30;99.90
26583;DHT22;14230;45.382;10.998;2022-10-17T13:42:26;24.30;99.90
26583;DHT22;14230;45.382;10.998;2022-10-17T13:44:56;24.30;99.90
26583;DHT22;14230;45.382;10.998;2022-10-17T13:47:26;24.30;99.90
26583;DHT22;14230;45.382;10.998;2022-10-17T13:49:55;24.30;99.90
26583;DHT22;14230;45.382;10.998;2022-10-17T13:52:26;24.30;99.90
26583;DHT22;14230;45.382;10.998;2022-10-17T13:55:06;24.20;99.90
26583;DHT22;14230;45.382;10.998;2022-10-17T13:57:34;24.20;99.90
26583;DHT22;14230;45.382;10.998;2022-10-17T14:00:18;24.10;99.90
26583;DHT22;14230;45.382;10.998;2022-10-17T14:02:46;24.10;99.90
26583;DHT22;14230;45.382;10.998;2022-10-17T14:05:17;24.10;99.90
26583;DHT22;14230;45.382;10.998;2022-10-17T14:07:58;24.10;99.90
26583;DHT22;14230;45.382;10.998;2022-10-17T14:10:47;24.10;99.90
26583;DHT22;14230;45.382;10.998;2022-10-17T14:13:32;24.10;99.90
26583;DHT22;14230;45.382;10.998;2022-10-17T14:16:03;24.10;99.90
26583;DHT22;14230;45.382;10.998;2022-10-17T14:18:33;24.00;99.90
26583;DHT22;14230;45.382;10.998;2022-10-17T14:21:03;24.00;99.90
26583;DHT22;14230;45.382;10.998;2022-10-17T14:24:06;23.90;99.90
26583;DHT22;14230;45.382;10.998;2022-10-17T14:26:50;23.90;99.90
26583;DHT22;14230;45.382;10.998;2022-10-17T14:29:27;23.80;99.90
26583;DHT22;14230;45.382;10.998;2022-10-17T14:32:06;23.80;99.90
26583;DHT22;14230;45.382;10.998;2022-10-17T14:34:39;23.80;99.90
26583;DHT22;14230;45.382;10.998;2022-10-17T14:40:05;23.80;99.90
26583;DHT22;14230;45.382;10.998;2022-10-17T14:42:38;23.80;99.90
26583;DHT22;14230;45.382;10.998;2022-10-17T14:45:11;23.70;99.90
26583;DHT22;14230;45.382;10.998;2022-10-17T14:47:40;23.70;99.90
26583;DHT22;14230;45.382;10.998;2022-10-17T14:52:38;23.60;99.90
26583;DHT22;14230;45.382;10.998;2022-10-17T14:55:23;23.50;99.90
26583;DHT22;14230;45.382;10.998;2022-10-17T14:57:51;23.50;99.90
26583;DHT22;14230;45.382;10.998;2022-10-17T15:00:20;23.50;99.90
26583;DHT22;14230;45.382;10.998;2022-10-17T15:02:50;23.40;99.90
26583;DHT22;14230;45.382;10.998;2022-10-17T15:05:18;23.30;99.90
26583;DHT22;14230;45.382;10.998;2022-10-17T15:07:46;23.30;99.90
26583;DHT22;14230;45.382;10.998;2022-10-17T15:10:33;23.30;99.90
26583;DHT22;14230;45.382;10.998;2022-10-17T15:13:02;23.20;99.90
26583;DHT22;14230;45.382;10.998;2022-10-17T15:15:50;23.10;99.90
26583;DHT22;14230;45.382;10.998;2022-10-17T15:18:18;23.00;99.90
26583;DHT22;14230;45.382;10.998;2022-10-17T15:20:46;23.00;99.90
26583;DHT22;14230;45.382;10.998;2022-10-17T15:23:22;22.90;99.90
26583;DHT22;14230;45.382;10.998;2022-10-17T15:25:49;22.90;99.90
26583;DHT22;14230;45.382;10.998;2022-10-17T15:28:17;22.80;99.90
26583;DHT22;14230;45.382;10.998;2022-10-17T15:30:44;22.80;99.90
26583;DHT22;14230;45.382;10.998;2022-10-17T15:33:11;22.70;99.90
26583;DHT22;14230;45.382;10.998;2022-10-17T15:35:39;22.60;99.90
26583;DHT22;14230;45.382;10.998;2022-10-17T15:38:11;22.50;99.90
26583;DHT22;14230;45.382;10.998;2022-10-17T15:40:42;22.50;99.90
26583;DHT22;14230;45.382;10.998;2022-10-17T15:43:09;22.40;99.90
26583;DHT22;14230;45.382;10.998;2022-10-17T15:45:37;22.40;99.90
26583;DHT22;14230;45.382;10.998;2022-10-17T15:48:06;22.30;99.90
26583;DHT22;14230;45.382;10.998;2022-10-17T15:50:35;22.20;99.90
26583;DHT22;14230;45.382;10.998;2022-10-17T15:53:04;22.20;99.90
26583;DHT22;14230;45.382;10.998;2022-10-17T15:55:32;22.10;99.90
26583;DHT22;14230;45.382;10.998;2022-10-17T15:57:59;22.10;99.90
26583;DHT22;14230;45.382;10.998;2022-10-17T16:00:26;22.00;99.90
26583;DHT22;14230;45.382;10.998;2022-10-17T16:02:54;21.90;99.90
26583;DHT22;14230;45.382;10.998;2022-10-17T16:05:23;21.80;99.90
26583;DHT22;14230;45.382;10.998;2022-10-17T16:07:55;21.80;99.90
26583;DHT22;14230;45.382;10.998;2022-10-17T16:10:24;21.60;99.90
26583;DHT22;14230;45.382;10.998;2022-10-17T16:12:52;21.60;99.90
26583;DHT22;14230;45.382;10.998;2022-10-17T16:15:22;21.50;99.90
26583;DHT22;14230;45.382;10.998;2022-10-17T16:17:52;21.40;99.90
26583;DHT22;14230;45.382;10.998;2022-10-17T16:20:21;21.30;99.90
26583;DHT22;14230;45.382;10.998;2022-10-17T16:22:49;21.20;99.90
26583;DHT22;14230;45.382;10.998;2022-10-17T16:25:25;21.10;99.90
26583;DHT22;14230;45.382;10.998;2022-10-17T16:27:55;21.00;99.90
26583;DHT22;14230;45.382;10.998;2022-10-17T16:30:25;20.90;99.90
26583;DHT22;14230;45.382;10.998;2022-10-17T16:32:54;20.90;99.90
26583;DHT22;14230;45.382;10.998;2022-10-17T16:35:27;20.80;99.90
26583;DHT22;14230;45.382;10.998;2022-10-17T16:38:04;20.70;99.90
26583;DHT22;14230;45.382;10.998;2022-10-17T16:40:31;20.70;99.90
26583;DHT22;14230;45.382;10.998;2022-10-17T16:42:59;20.60;99.90
26583;DHT22;14230;45.382;10.998;2022-10-17T16:45:28;20.50;99.90
26583;DHT22;14230;45.382;10.998;2022-10-17T16:47:56;20.40;99.90
26583;DHT22;14230;45.382;10.998;2022-10-17T16:50:23;20.30;99.90
26583;DHT22;14230;45.382;10.998;2022-10-17T16:52:51;20.20;99.90
26583;DHT22;14230;45.382;10.998;2022-10-17T16:55:18;20.10;99.90
26583;DHT22;14230;45.382;10.998;2022-10-17T16:57:46;20.00;99.90
26583;DHT22;14230;45.382;10.998;2022-10-17T17:00:16;19.90;99.90
26583;DHT22;14230;45.382;10.998;2022-10-17T17:02:46;19.80;99.90
26583;DHT22;14230;45.382;10.998;2022-10-17T17:05:14;19.70;99.90
26583;DHT22;14230;45.382;10.998;2022-10-17T17:07:41;19.60;99.90
26583;DHT22;14230;45.382;10.998;2022-10-17T17:10:09;19.60;99.90
26583;DHT22;14230;45.382;10.998;2022-10-17T17:12:36;19.50;99.90
26583;DHT22;14230;45.382;10.998;2022-10-17T17:15:05;19.50;99.90
26583;DHT22;14230;45.382;10.998;2022-10-17T17:17:32;19.50;99.90
26583;DHT22;14230;45.382;10.998;2022-10-17T17:20:16;19.40;99.90
26583;DHT22;14230;45.382;10.998;2022-10-17T17:22:43;19.40;99.90
26583;DHT22;14230;45.382;10.998;2022-10-17T17:25:11;19.40;99.90
26583;DHT22;14230;45.382;10.998;2022-10-17T17:27:38;19.30;99.90
26583;DHT22;14230;45.382;10.998;2022-10-17T17:30:06;19.20;99.90
26583;DHT22;14230;45.382;10.998;2022-10-17T17:32:34;19.10;99.90
26583;DHT22;14230;45.382;10.998;2022-10-17T17:35:01;19.00;99.90
26583;DHT22;14230;45.382;10.998;2022-10-17T17:37:28;19.00;99.90
26583;DHT22;14230;45.382;10.998;2022-10-17T17:39:56;19.00;99.90
26583;DHT22;14230;45.382;10.998;2022-10-17T17:42:24;19.00;99.90
26583;DHT22;14230;45.382;10.998;2022-10-17T17:44:51;18.90;99.90
26583;DHT22;14230;45.382;10.998;2022-10-17T17:47:19;18.90;99.90
26583;DHT22;14230;45.382;10.998;2022-10-17T17:49:46;19.00;99.90